Time;durP1;ratioP1;P1;durP2;ratioP2;P2;SDS_P1;SDS_P2;PMS_P1;PMS_P2;Temp;Humidity;BMP_temperature;BMP_pressure;BME280_temperature;BME280_humidity;BME280_pressure;Samples;Min_cycle;Max_cycle;Signal;HPM_P1;HPM_P2
2021/12/11 00:02:09;;;;;;;0.40;0.30;;;;;;;2.15;100.00;99900.38;5072563;28;20453;-73
2021/12/11 00:04:42;;;;;;;0.40;0.30;;;;;;;2.14;100.00;99899.56;5072550;28;20483;-72
2021/12/11 00:07:13;;;;;;;0.40;0.30;;;;;;;2.10;100.00;99903.03;5072486;28;20456;-73
2021/12/11 00:09:45;;;;;;;0.40;0.30;;;;;;;2.09;100.00;99896.88;5072553;28;20430;-72
2021/12/11 00:12:19;;;;;;;0.50;0.30;;;;;;;2.13;100.00;99903.31;5075127;28;20479;-72
2021/12/11 00:14:49;;;;;;;0.40;0.30;;;;;;;2.10;100.00;99901.16;5076048;28;20429;-73
2021/12/11 00:17:22;;;;;;;0.40;0.30;;;;;;;2.05;100.00;99903.81;5075855;28;20485;-72
2021/12/11 00:19:48;;;;;;;0.40;0.30;;;;;;;2.03;100.00;99904.06;5075978;28;20426;-73
2021/12/11 00:22:17;;;;;;;0.50;0.30;;;;;;;2.09;100.00;99912.13;5075935;28;20861;-72
2021/12/11 00:24:45;;;;;;;1.33;1.27;;;;;;;2.08;100.00;99915.81;5075541;28;21004;-73
2021/12/11 00:27:16;;;;;;;0.87;0.87;;;;;;;1.97;100.00;99923.00;5075434;28;20985;-72
2021/12/11 00:29:43;;;;;;;0.40;0.30;;;;;;;1.98;100.00;99935.28;5075530;28;20894;-73
2021/12/11 00:32:13;;;;;;;0.40;0.30;;;;;;;2.01;100.00;99932.09;5075426;28;20949;-72
2021/12/11 00:34:43;;;;;;;0.40;0.30;;;;;;;2.03;100.00;99935.31;5075667;28;20502;-73
2021/12/11 00:37:12;;;;;;;0.50;0.50;;;;;;;2.05;100.00;99937.75;5075525;28;20516;-73
2021/12/11 00:39:48;;;;;;;0.40;0.30;;;;;;;2.03;100.00;99941.44;5075549;28;20449;-72
2021/12/11 00:42:14;;;;;;;0.40;0.27;;;;;;;2.02;100.00;99944.38;5075584;28;20440;-73
2021/12/11 00:44:44;;;;;;;0.40;0.30;;;;;;;1.97;100.00;99947.84;5075468;28;20442;-73
2021/12/11 00:47:13;;;;;;;0.40;0.30;;;;;;;1.99;100.00;99951.06;5075049;28;20473;-73
2021/12/11 00:49:53;;;;;;;0.40;0.30;;;;;;;1.98;100.00;99954.78;5075319;28;20437;-73
2021/12/11 00:52:29;;;;;;;0.40;0.20;;;;;;;2.04;100.00;99969.00;5075381;28;20436;-73
2021/12/11 00:54:58;;;;;;;0.40;0.30;;;;;;;2.01;100.00;99977.50;5075304;28;20433;-73
2021/12/11 00:57:25;;;;;;;0.40;0.30;;;;;;;2.01;100.00;99977.50;5075128;28;20485;-73
2021/12/11 01:00:17;;;;;;;0.47;0.47;;;;;;;1.90;100.00;99984.66;5074869;28;20950;-73
2021/12/11 01:02:45;;;;;;;0.40;0.30;;;;;;;1.86;100.00;99982.75;5060264;28;20959;-73
2021/12/11 01:05:12;;;;;;;0.40;0.30;;;;;;;1.87;100.00;99987.06;5075106;28;20429;-73
2021/12/11 01:07:40;;;;;;;0.40;0.30;;;;;;;1.77;100.00;99996.59;5075004;28;20468;-73
2021/12/11 01:10:12;;;;;;;0.40;0.30;;;;;;;1.74;100.00;99993.66;5074402;28;20465;-73
2021/12/11 01:12:45;;;;;;;0.60;0.30;;;;;;;1.66;100.00;100002.94;5074984;28;20426;-73
2021/12/11 01:15:16;;;;;;;0.80;0.80;;;;;;;1.66;100.00;100005.59;5074795;28;20432;-73
2021/12/11 01:17:58;;;;;;;0.40;0.30;;;;;;;1.82;100.00;100009.19;5074732;28;20489;-73
2021/12/11 01:20:35;;;;;;;0.40;0.30;;;;;;;1.93;100.00;100013.50;5074878;28;20433;-73
2021/12/11 01:23:04;;;;;;;0.40;0.30;;;;;;;2.00;100.00;100007.97;5074645;28;20436;-73
2021/12/11 01:25:32;;;;;;;0.40;0.30;;;;;;;1.99;100.00;100015.16;5074596;28;20441;-73
2021/12/11 01:28:02;;;;;;;0.50;0.30;;;;;;;2.02;100.00;100017.31;5074628;28;20502;-73
2021/12/11 01:30:31;;;;;;;0.40;0.30;;;;;;;2.06;100.00;100014.13;5074295;28;20449;-73
2021/12/11 01:32:58;;;;;;;0.40;0.30;;;;;;;2.10;100.00;100020.56;5074513;28;20446;-73
2021/12/11 01:35:25;;;;;;;0.40;0.30;;;;;;;2.15;100.00;100018.72;5074423;28;20822;-73
2021/12/11 01:38:01;;;;;;;0.40;0.30;;;;;;;2.11;100.00;100022.97;5074371;28;20481;-73
2021/12/11 01:40:31;;;;;;;0.40;0.30;;;;;;;1.98;100.00;100028.75;5074452;28;20437;-73
2021/12/11 01:42:59;;;;;;;0.40;0.30;;;;;;;1.94;100.00;100027.66;5074018;28;20957;-73
2021/12/11 01:45:26;;;;;;;0.40;0.20;;;;;;;1.94;100.00;100038.34;5073286;28;20461;-73
2021/12/11 01:47:53;;;;;;;0.40;0.20;;;;;;;1.93;100.00;100034.06;5073864;28;20950;-73
2021/12/11 01:50:30;;;;;;;0.40;0.23;;;;;;;2.12;100.00;100048.59;5073821;28;20437;-73
2021/12/11 01:53:00;;;;;;;0.40;0.30;;;;;;;2.12;100.00;100043.25;5074199;28;20436;-74
2021/12/11 01:55:31;;;;;;;0.40;0.27;;;;;;;2.08;100.00;100050.22;5073998;28;20449;-73
2021/12/11 01:58:02;;;;;;;0.40;0.20;;;;;;;2.09;100.00;100051.81;5074174;28;20901;-73
2021/12/11 02:00:32;;;;;;;0.90;0.90;;;;;;;2.05;100.00;100060.59;5074036;28;20444;-73
2021/12/11 02:03:04;;;;;;;0.40;0.40;;;;;;;1.94;100.00;100060.50;5073704;28;20941;-72
2021/12/11 02:05:34;;;;;;;2.20;2.10;;;;;;;1.98;100.00;100061.59;5073926;28;20429;-73
2021/12/11 02:08:04;;;;;;;0.40;0.30;;;;;;;2.00;100.00;100064.03;5073838;28;20433;-73
2021/12/11 02:10:37;;;;;;;0.40;0.30;;;;;;;2.09;100.00;100070.50;5073863;28;20422;-73
2021/12/11 02:13:08;;;;;;;0.73;0.70;;;;;;;2.03;100.00;100064.31;5073807;28;20425;-73
2021/12/11 02:15:42;;;;;;;0.40;0.30;;;;;;;1.99;100.00;100065.91;5073715;28;20430;-73
2021/12/11 02:18:13;;;;;;;0.50;0.30;;;;;;;1.96;100.00;100068.28;5073637;28;20560;-73
2021/12/11 02:20:43;;;;;;;2.37;2.27;;;;;;;1.95;100.00;100077.38;5073760;28;20494;-73
2021/12/11 02:23:14;;;;;;;0.40;0.20;;;;;;;1.99;100.00;100078.44;5073631;28;20446;-73
2021/12/11 02:25:44;;;;;;;0.40;0.20;;;;;;;2.02;100.00;100075.25;5073220;28;20906;-73
2021/12/11 02:28:15;;;;;;;3.80;3.50;;;;;;;1.99;100.00;100083.78;5073262;28;20457;-73
2021/12/11 02:30:46;;;;;;;0.40;0.30;;;;;;;1.99;100.00;100099.81;5073626;28;20794;-73
2021/12/11 02:33:18;;;;;;;0.40;0.30;;;;;;;1.98;100.00;100098.19;5073233;28;20421;-73
2021/12/11 02:35:53;;;;;;;0.40;0.20;;;;;;;2.10;100.00;100095.34;5073046;28;20991;-73
2021/12/11 02:38:25;;;;;;;0.40;0.30;;;;;;;2.19;100.00;100093.81;5073403;28;20468;-73
2021/12/11 02:40:56;;;;;;;0.50;0.50;;;;;;;2.18;100.00;100087.66;5073456;28;20433;-73
2021/12/11 02:43:30;;;;;;;0.43;0.37;;;;;;;2.11;100.00;100084.41;5073096;28;20425;-73
2021/12/11 02:46:01;;;;;;;0.40;0.30;;;;;;;2.19;100.00;100088.47;5073144;28;20492;-73
2021/12/11 02:48:32;;;;;;;0.50;0.30;;;;;;;2.18;100.00;100093.00;5073391;28;20417;-73
2021/12/11 02:51:04;;;;;;;0.40;0.30;;;;;;;2.11;100.00;100092.41;5072991;28;20904;-71
2021/12/11 02:53:34;;;;;;;0.50;0.50;;;;;;;2.08;100.00;100100.97;5073328;28;20458;-71
2021/12/11 02:56:08;;;;;;;0.40;0.30;;;;;;;2.08;100.00;100100.97;5072916;28;21053;-72
2021/12/11 02:58:38;;;;;;;0.40;0.30;;;;;;;2.12;100.00;100107.38;5073248;28;20462;-71
2021/12/11 03:01:09;;;;;;;0.40;0.30;;;;;;;2.12;100.00;100107.38;5072958;28;21012;-73
2021/12/11 03:03:40;;;;;;;0.40;0.30;;;;;;;1.98;100.00;100106.22;5073277;28;20439;-74
2021/12/11 03:06:16;;;;;;;0.40;0.30;;;;;;;1.99;100.00;100111.31;5073171;28;20556;-73
2021/12/11 03:08:44;;;;;;;0.40;0.30;;;;;;;2.05;100.00;100117.50;5073170;28;20430;-74
2021/12/11 03:11:15;;;;;;;11.50;10.33;;;;;;;1.99;100.00;100129.19;5073126;28;20441;-74
2021/12/11 03:13:50;;;;;;;0.40;0.30;;;;;;;2.02;100.00;100126.81;5073156;28;20429;-74
2021/12/11 03:16:17;;;;;;;0.40;0.30;;;;;;;2.00;100.00;100128.13;5072986;28;20503;-73
2021/12/11 03:18:43;;;;;;;0.40;0.30;;;;;;;1.99;100.00;100137.19;5072958;28;20480;-74
2021/12/11 03:21:10;;;;;;;0.40;0.30;;;;;;;1.99;100.00;100138.03;5072674;28;20823;-74
2021/12/11 03:23:36;;;;;;;0.40;0.30;;;;;;;2.00;100.00;100144.16;5073013;28;20449;-74
2021/12/11 03:26:04;;;;;;;0.40;0.40;;;;;;;2.05;100.00;100146.88;5072569;28;20877;-74
2021/12/11 03:28:31;;;;;;;17.50;16.30;;;;;;;1.98;100.00;100151.63;5072927;28;20448;-74
2021/12/11 03:31:00;;;;;;;0.40;0.30;;;;;;;1.97;100.00;100158.81;5073051;28;20445;-74
2021/12/11 03:33:31;;;;;;;0.40;0.30;;;;;;;1.94;100.00;100156.66;5072901;28;20449;-74
2021/12/11 03:35:58;;;;;;;0.40;0.30;;;;;;;1.89;100.00;100158.47;5072865;28;20461;-74
2021/12/11 03:38:26;;;;;;;0.40;0.30;;;;;;;1.85;100.00;100163.53;5072531;28;21014;-74
2021/12/11 03:40:53;;;;;;;0.40;0.30;;;;;;;1.83;100.00;100160.31;5072858;28;20848;-74
2021/12/11 03:43:23;;;;;;;0.40;0.30;;;;;;;1.82;100.00;100161.38;5072781;28;20448;-74
2021/12/11 03:45:53;;;;;;;0.40;0.30;;;;;;;1.82;100.00;100158.72;5073215;28;20468;-74
2021/12/11 03:48:22;;;;;;;0.40;0.30;;;;;;;1.85;100.00;100168.06;5076307;28;20835;-74
2021/12/11 03:50:51;;;;;;;0.40;0.27;;;;;;;1.84;100.00;100169.94;5076506;28;20482;-74
2021/12/11 03:53:19;;;;;;;0.40;0.30;;;;;;;1.92;100.00;100182.00;5076475;28;20437;-74
2021/12/11 03:55:49;;;;;;;0.40;0.30;;;;;;;1.95;100.00;100187.66;5076303;28;20496;-74
2021/12/11 03:58:16;;;;;;;0.40;0.30;;;;;;;1.96;100.00;100183.13;5076607;28;20484;-74
2021/12/11 04:00:48;;;;;;;0.40;0.30;;;;;;;2.00;100.00;100197.59;5076001;28;20942;-74
2021/12/11 04:03:17;;;;;;;0.40;0.30;;;;;;;1.93;100.00;100194.31;5076328;28;20440;-75
2021/12/11 04:05:45;;;;;;;0.40;0.30;;;;;;;1.86;100.00;100207.03;5076143;28;20445;-74
2021/12/11 04:08:23;;;;;;;0.40;0.30;;;;;;;1.84;100.00;100201.97;5076183;28;20582;-74
2021/12/11 04:10:51;;;;;;;0.40;0.30;;;;;;;1.80;100.00;100206.19;5076173;28;20417;-74
2021/12/11 04:13:18;;;;;;;0.40;0.30;;;;;;;1.74;100.00;100205.34;5076112;28;20445;-74
2021/12/11 04:15:50;;;;;;;0.40;0.30;;;;;;;1.73;100.00;100213.63;5076013;28;20473;-75
2021/12/11 04:18:17;;;;;;;0.40;0.30;;;;;;;1.72;100.00;100215.44;5075954;28;20473;-74
2021/12/11 04:20:46;;;;;;;1.13;1.13;;;;;;;1.73;100.00;100214.41;5075955;28;20441;-75
2021/12/11 04:23:14;;;;;;;0.40;0.30;;;;;;;1.71;100.00;100213.84;5075901;28;20437;-74
2021/12/11 04:25:44;;;;;;;0.40;0.30;;;;;;;1.74;100.00;100220.56;5075782;28;20486;-74
2021/12/11 04:28:11;;;;;;;0.40;0.30;;;;;;;1.71;100.00;100232.53;5075829;28;20438;-74
2021/12/11 04:30:39;;;;;;;0.40;0.30;;;;;;;1.71;100.00;100232.53;5075805;28;20481;-75
2021/12/11 04:33:07;;;;;;;0.40;0.30;;;;;;;1.69;100.00;100239.19;5075723;28;20819;-74
2021/12/11 04:35:34;;;;;;;0.40;0.30;;;;;;;1.66;100.00;100245.84;5075633;28;20445;-74
2021/12/11 04:38:04;;;;;;;0.40;0.30;;;;;;;1.67;100.00;100246.63;5075577;28;20828;-74
2021/12/11 04:40:37;;;;;;;0.40;0.30;;;;;;;1.62;100.00;100251.91;5076108;28;20429;-74
2021/12/11 04:43:07;;;;;;;0.40;0.20;;;;;;;1.62;100.00;100254.59;5075577;28;20440;-74
2021/12/11 04:45:39;;;;;;;0.40;0.30;;;;;;;1.65;100.00;100260.25;5075350;28;20456;-74
2021/12/11 04:48:18;;;;;;;0.40;0.30;;;;;;;1.64;100.00;100266.66;5075551;28;20421;-75
2021/12/11 04:50:53;;;;;;;0.40;0.30;;;;;;;1.66;100.00;100266.38;5075474;28;20425;-74
2021/12/11 04:53:36;;;;;;;0.80;0.80;;;;;;;1.65;100.00;100270.91;5075157;28;20902;-74
2021/12/11 04:56:26;;;;;;;0.40;0.30;;;;;;;1.60;100.00;100280.75;5075297;28;20465;-74
2021/12/11 04:59:12;;;;;;;2.57;2.47;;;;;;;1.61;100.00;100285.81;5075204;28;20469;-73
2021/12/11 05:01:50;;;;;;;0.40;0.30;;;;;;;1.63;100.00;100293.56;5075240;28;20437;-73
2021/12/11 05:04:40;;;;;;;0.40;0.30;;;;;;;1.60;100.00;100294.88;5075181;28;20445;-74
2021/12/11 05:07:21;;;;;;;0.40;0.27;;;;;;;1.64;100.00;100293.34;5075036;28;20511;-74
2021/12/11 05:09:54;;;;;;;0.40;0.30;;;;;;;1.60;100.00;100300.22;5075119;28;20421;-74
2021/12/11 05:12:32;;;;;;;0.40;0.30;;;;;;;1.59;100.00;100298.59;5075053;28;20422;-73
2021/12/11 05:14:59;;;;;;;0.40;0.30;;;;;;;1.52;100.00;100308.66;5074987;28;20469;-73
2021/12/11 05:17:26;;;;;;;0.40;0.30;;;;;;;1.44;100.00;100306.41;5074829;28;20468;-73
2021/12/11 05:19:54;;;;;;;0.40;0.30;;;;;;;1.37;100.00;100311.13;5074799;28;20852;-74
2021/12/11 05:22:21;;;;;;;0.40;0.30;;;;;;;1.31;100.00;100312.13;5074798;28;20502;-74
2021/12/11 05:24:52;;;;;;;0.40;0.30;;;;;;;1.36;100.00;100321.00;5076233;28;20456;-74
2021/12/11 05:27:19;;;;;;;0.70;0.70;;;;;;;1.33;100.00;100320.66;5074656;28;20853;-74
2021/12/11 05:29:46;;;;;;;0.40;0.30;;;;;;;1.35;100.00;100330.06;5074659;28;20839;-74
2021/12/11 05:32:16;;;;;;;1.43;1.37;;;;;;;1.33;100.00;100334.00;5074578;28;20437;-74
2021/12/11 05:34:43;;;;;;;0.40;0.30;;;;;;;1.38;100.00;100344.78;5074564;28;20421;-74
2021/12/11 05:37:12;;;;;;;0.40;0.30;;;;;;;1.36;100.00;100346.88;5074398;28;20812;-74
2021/12/11 05:39:39;;;;;;;0.40;0.30;;;;;;;1.45;100.00;100346.19;5073896;28;20496;-73
2021/12/11 05:42:07;;;;;;;0.50;0.50;;;;;;;1.51;100.00;100357.75;5074309;28;20444;-73
2021/12/11 05:44:34;;;;;;;0.40;0.30;;;;;;;1.53;100.00;100358.31;5074360;28;20444;-74
2021/12/11 05:47:02;;;;;;;0.40;0.20;;;;;;;1.55;100.00;100368.72;5073859;28;20489;-73
2021/12/11 05:49:30;;;;;;;0.40;0.30;;;;;;;1.48;100.00;100369.72;5073868;28;20809;-73
2021/12/11 05:51:57;;;;;;;0.40;0.30;;;;;;;1.52;100.00;100367.38;5074144;28;20534;-74
2021/12/11 05:54:27;;;;;;;3.43;3.23;;;;;;;1.58;100.00;100369.06;5074153;28;20469;-73
2021/12/11 05:56:58;;;;;;;0.40;0.30;;;;;;;1.63;100.00;100376.31;5074621;28;20465;-74
2021/12/11 05:59:25;;;;;;;0.40;0.30;;;;;;;1.65;100.00;100376.91;5074024;28;20470;-73
2021/12/11 06:01:55;;;;;;;0.40;0.20;;;;;;;1.62;100.00;100372.84;5074002;28;20434;-73
2021/12/11 06:04:25;;;;;;;0.40;0.30;;;;;;;1.57;100.00;100386.13;5073699;28;20926;-73
2021/12/11 06:06:52;;;;;;;0.40;0.30;;;;;;;1.53;100.00;100390.34;5073840;28;20489;-73
2021/12/11 06:09:21;;;;;;;0.40;0.30;;;;;;;1.53;100.00;100395.69;5073125;28;20444;-74
2021/12/11 06:11:52;;;;;;;0.40;0.30;;;;;;;1.58;100.00;100398.41;5073510;28;20839;-74
2021/12/11 06:14:20;;;;;;;0.40;0.30;;;;;;;1.59;100.00;100401.88;5073840;28;20433;-74
2021/12/11 06:16:48;;;;;;;0.40;0.30;;;;;;;1.60;100.00;100417.69;5073682;28;20465;-73
2021/12/11 06:19:19;;;;;;;0.40;0.30;;;;;;;1.63;100.00;100416.34;5073606;28;20481;-74
2021/12/11 06:21:45;;;;;;;0.40;0.30;;;;;;;1.61;100.00;100419.28;5073564;28;20907;-73
2021/12/11 06:24:12;;;;;;;0.40;0.30;;;;;;;1.64;100.00;100421.47;5073646;28;20441;-73
2021/12/11 06:26:39;;;;;;;0.40;0.30;;;;;;;1.59;100.00;100418.69;5073545;28;20491;-74
2021/12/11 06:29:07;;;;;;;0.40;0.30;;;;;;;1.51;100.00;100414.63;5073559;28;20444;-73
2021/12/11 06:31:34;;;;;;;0.40;0.30;;;;;;;1.51;100.00;100419.16;5073525;28;20730;-74
2021/12/11 06:34:01;;;;;;;0.40;0.30;;;;;;;1.47;100.00;100426.03;5073196;28;20460;-74
2021/12/11 06:36:28;;;;;;;0.40;0.30;;;;;;;1.44;100.00;100426.50;5073365;28;20456;-73
2021/12/11 06:38:58;;;;;;;0.90;0.90;;;;;;;1.40;100.00;100436.03;5073357;28;20485;-74
2021/12/11 06:41:27;;;;;;;0.40;0.30;;;;;;;1.45;100.00;100430.78;5073403;28;20445;-73
2021/12/11 06:43:54;;;;;;;0.40;0.30;;;;;;;1.44;100.00;100440.66;5073428;28;20446;-74
2021/12/11 06:46:22;;;;;;;0.40;0.30;;;;;;;1.47;100.00;100450.84;5073070;28;20481;-73
2021/12/11 06:48:49;;;;;;;0.40;0.30;;;;;;;1.55;100.00;100465.66;5073389;28;20445;-76
2021/12/11 06:51:16;;;;;;;0.40;0.30;;;;;;;1.65;100.00;100460.44;5072886;28;20442;-74
2021/12/11 06:53:47;;;;;;;0.50;0.40;;;;;;;1.67;100.00;100471.69;5073314;28;20445;-75
2021/12/11 06:56:16;;;;;;;0.40;0.30;;;;;;;1.70;100.00;100471.19;5073221;28;20454;-75
2021/12/11 06:58:42;;;;;;;0.40;0.30;;;;;;;1.69;100.00;100472.25;5072836;28;20863;-75
2021/12/11 07:01:10;;;;;;;0.40;0.30;;;;;;;1.66;100.00;100480.75;5072888;28;20862;-75
2021/12/11 07:03:40;;;;;;;0.40;0.30;;;;;;;1.63;100.00;100486.56;5073197;28;20445;-74
2021/12/11 07:06:09;;;;;;;4.60;4.37;;;;;;;1.61;100.00;100504.69;5073111;28;20461;-74
2021/12/11 07:08:38;;;;;;;0.40;0.30;;;;;;;1.61;100.00;100503.91;5072785;28;20942;-75
2021/12/11 07:11:06;;;;;;;0.40;0.30;;;;;;;1.58;100.00;100515.06;5073129;28;20449;-75
2021/12/11 07:13:33;;;;;;;0.40;0.20;;;;;;;1.52;100.00;100522.97;5072992;28;20460;-75
2021/12/11 07:15:59;;;;;;;0.40;0.30;;;;;;;1.44;100.00;100526.03;5072997;28;20928;-74
2021/12/11 07:18:28;;;;;;;0.40;0.30;;;;;;;1.49;100.00;100533.31;5072815;28;20820;-75
2021/12/11 07:20:56;;;;;;;0.40;0.30;;;;;;;1.37;100.00;100535.25;5075501;28;20520;-74
2021/12/11 07:23:23;;;;;;;0.40;0.30;;;;;;;1.35;100.00;100543.50;5077128;28;20441;-75
2021/12/11 07:25:55;;;;;;;0.40;0.30;;;;;;;1.43;100.00;100550.31;5076665;28;20461;-75
2021/12/11 07:28:22;;;;;;;0.40;0.30;;;;;;;1.37;100.00;100552.06;5077048;28;20426;-75
2021/12/11 07:30:51;;;;;;;0.40;0.30;;;;;;;1.39;100.00;100565.19;5076307;28;20461;-75
2021/12/11 07:33:19;;;;;;;0.40;0.30;;;;;;;1.52;100.00;100580.88;5076867;28;20453;-75
2021/12/11 07:35:47;;;;;;;0.40;0.30;;;;;;;1.59;100.00;100580.72;5076831;28;20461;-75
2021/12/11 07:38:15;;;;;;;0.40;0.30;;;;;;;1.57;100.00;100585.50;5076759;28;20448;-75
2021/12/11 07:40:47;;;;;;;0.40;0.30;;;;;;;1.60;100.00;100585.84;5076632;28;20856;-75
2021/12/11 07:43:14;;;;;;;0.40;0.23;;;;;;;1.51;100.00;100587.28;5076691;28;20449;-76
2021/12/11 07:45:42;;;;;;;0.40;0.30;;;;;;;1.42;100.00;100588.72;5076135;28;20949;-75
2021/12/11 07:48:09;;;;;;;0.40;0.30;;;;;;;1.35;100.00;100580.06;5076651;28;20434;-74
2021/12/11 07:50:36;;;;;;;0.60;0.60;;;;;;;1.42;100.00;100586.06;5076558;28;20475;-74
2021/12/11 07:53:04;;;;;;;0.40;0.30;;;;;;;1.43;100.00;100603.69;5076348;28;20428;-75
2021/12/11 07:55:32;;;;;;;0.40;0.30;;;;;;;1.33;100.00;100603.47;5076484;28;20448;-71
2021/12/11 07:57:59;;;;;;;0.40;0.30;;;;;;;1.32;100.00;100609.88;5076366;28;20490;-71
2021/12/11 08:00:28;;;;;;;0.40;0.30;;;;;;;1.28;100.00;100606.88;5076245;28;20481;-70
2021/12/11 08:02:55;;;;;;;0.40;0.30;;;;;;;1.25;100.00;100618.03;5076330;28;20441;-71
2021/12/11 08:05:26;;;;;;;0.40;0.30;;;;;;;1.18;100.00;100620.84;5076235;28;20452;-71
2021/12/11 08:07:53;;;;;;;0.40;0.30;;;;;;;1.13;100.00;100620.75;5075603;28;20464;-71
2021/12/11 08:10:23;;;;;;;0.40;0.30;;;;;;;1.17;100.00;100627.22;5076109;28;20440;-71
2021/12/11 08:12:51;;;;;;;0.40;0.30;;;;;;;1.29;100.00;100635.19;5076161;28;20448;-71
2021/12/11 08:15:18;;;;;;;0.40;0.30;;;;;;;1.30;100.00;100636.00;5076045;28;20469;-71
2021/12/11 08:17:51;;;;;;;0.40;0.30;;;;;;;1.31;100.00;100637.63;5075961;28;20468;-71
2021/12/11 08:20:18;;;;;;;0.40;0.30;;;;;;;1.29;100.00;100645.88;5074982;28;20508;-71
2021/12/11 08:22:44;;;;;;;0.40;0.30;;;;;;;1.22;100.00;100651.31;5075933;28;20487;-71
2021/12/11 08:25:11;;;;;;;0.40;0.30;;;;;;;1.18;100.00;100665.38;5075888;28;20441;-70
2021/12/11 08:27:38;;;;;;;0.40;0.30;;;;;;;1.21;100.00;100654.25;5075780;28;20468;-71
2021/12/11 08:30:08;;;;;;;0.40;0.30;;;;;;;1.28;100.00;100665.56;5075761;28;20437;-73
2021/12/11 08:32:34;;;;;;;0.50;0.50;;;;;;;1.31;100.00;100661.63;5074579;28;20954;-72
2021/12/11 08:35:02;;;;;;;10.07;9.30;;;;;;;1.38;100.00;100667.66;5075722;28;20433;-74
2021/12/11 08:37:29;;;;;;;4.20;3.80;;;;;;;1.31;100.00;100664.28;5075325;28;21003;-74
2021/12/11 08:39:56;;;;;;;0.40;0.40;;;;;;;1.22;100.00;100670.00;5075248;28;20496;-74
2021/12/11 08:42:24;;;;;;;0.40;0.30;;;;;;;1.19;100.00;100680.31;5075290;28;20938;-73
2021/12/11 08:44:59;;;;;;;0.40;0.30;;;;;;;1.12;100.00;100683.16;5075545;28;20445;-74
2021/12/11 08:47:27;;;;;;;0.40;0.30;;;;;;;1.13;100.00;100682.09;5075056;28;20476;-74
2021/12/11 08:49:55;;;;;;;0.40;0.30;;;;;;;1.15;100.00;100685.34;5075460;28;20433;-73
2021/12/11 08:52:27;;;;;;;0.40;0.30;;;;;;;1.15;100.00;100693.34;5075483;28;20491;-73
2021/12/11 08:54:56;;;;;;;0.40;0.30;;;;;;;1.13;100.00;100690.09;5075057;28;20903;-74
2021/12/11 08:57:26;;;;;;;0.40;0.30;;;;;;;1.00;100.00;100696.50;5075164;28;21020;-73
2021/12/11 08:59:57;;;;;;;0.40;0.30;;;;;;;0.99;100.00;100704.75;5075477;28;20489;-73
2021/12/11 09:02:28;;;;;;;0.40;0.30;;;;;;;0.97;100.00;100706.81;5075273;28;20418;-73
2021/12/11 09:04:58;;;;;;;0.40;0.30;;;;;;;0.98;100.00;100713.78;5075132;28;20449;-73
2021/12/11 09:07:34;;;;;;;0.40;0.30;;;;;;;0.94;100.00;100709.97;5074752;28;20978;-74
2021/12/11 09:10:07;;;;;;;0.97;0.97;;;;;;;1.01;100.00;100719.44;5075082;28;20444;-73
2021/12/11 09:12:41;;;;;;;0.40;0.30;;;;;;;1.09;100.00;100722.81;5075057;28;20427;-73
2021/12/11 09:15:11;;;;;;;0.57;0.57;;;;;;;1.00;100.00;100717.81;5074714;28;20429;-73
2021/12/11 09:17:43;;;;;;;0.40;0.30;;;;;;;1.03;100.00;100727.22;5074586;28;20981;-73
2021/12/11 09:20:15;;;;;;;0.40;0.30;;;;;;;1.03;100.00;100729.91;5074477;28;20465;-73
2021/12/11 09:22:46;;;;;;;0.40;0.30;;;;;;;1.14;100.00;100723.72;5074939;28;20433;-73
2021/12/11 09:25:19;;;;;;;0.40;0.30;;;;;;;1.20;100.00;100730.78;5074481;28;20905;-73
2021/12/11 09:27:51;;;;;;;0.40;0.30;;;;;;;1.30;100.00;100735.53;5074681;28;20469;-73
2021/12/11 09:30:22;;;;;;;2.93;2.70;;;;;;;1.40;100.00;100737.59;5074785;28;20422;-73
2021/12/11 09:32:54;;;;;;;0.40;0.30;;;;;;;1.44;100.00;100738.72;5074603;28;20487;-73
2021/12/11 09:35:24;;;;;;;0.40;0.30;;;;;;;1.35;100.00;100750.81;5074644;28;20425;-73
2021/12/11 09:37:55;;;;;;;0.40;0.30;;;;;;;1.38;100.00;100745.03;5074502;28;20445;-73
2021/12/11 09:40:46;;;;;;;0.93;0.93;;;;;;;1.38;100.00;100745.03;5074119;28;20470;-73
2021/12/11 09:43:41;;;;;;;0.40;0.30;;;;;;;1.41;100.00;100750.69;5074166;28;20434;-73
2021/12/11 09:46:12;;;;;;;0.50;0.40;;;;;;;1.37;100.00;100756.72;5074110;28;20496;-73
2021/12/11 09:48:40;;;;;;;0.40;0.30;;;;;;;1.42;100.00;100755.00;5074362;28;20792;-73
2021/12/11 09:51:11;;;;;;;0.40;0.30;;;;;;;1.42;100.00;100760.34;5074176;28;20433;-73
2021/12/11 09:53:42;;;;;;;0.40;0.30;;;;;;;1.29;99.38;100757.13;5074250;28;20426;-73
2021/12/11 09:56:12;;;;;;;0.40;0.30;;;;;;;1.22;99.59;100754.56;5073796;28;21095;-73
2021/12/11 09:58:42;;;;;;;0.40;0.30;;;;;;;1.13;100.00;100764.78;5074035;28;20487;-73
2021/12/11 10:01:12;;;;;;;0.40;0.30;;;;;;;1.14;100.00;100761.06;5073831;28;20481;-73
2021/12/11 10:03:47;;;;;;;0.40;0.30;;;;;;;1.16;100.00;100766.19;5073979;28;20441;-73
2021/12/11 10:06:37;;;;;;;0.40;0.30;;;;;;;1.18;100.00;100775.56;5073613;28;20457;-73
2021/12/11 10:09:17;;;;;;;0.40;0.30;;;;;;;1.23;100.00;100788.19;5073922;28;20495;-76
2021/12/11 10:11:48;;;;;;;0.40;0.30;;;;;;;1.24;100.00;100795.16;5073835;28;20555;-73
2021/12/11 10:14:19;;;;;;;0.40;0.30;;;;;;;1.32;100.00;100800.13;5073875;28;20432;-73
2021/12/11 10:16:52;;;;;;;0.40;0.33;;;;;;;1.34;100.00;100803.38;5073374;28;20982;-73
2021/12/11 10:19:20;;;;;;;0.40;0.30;;;;;;;1.34;100.00;100800.72;5073657;28;20418;-73
2021/12/11 10:21:50;;;;;;;0.40;0.30;;;;;;;1.37;100.00;100802.91;5073565;28;20453;-74
2021/12/11 10:24:22;;;;;;;0.40;0.30;;;;;;;1.38;100.00;100801.88;5073547;28;20429;-74
2021/12/11 10:26:50;;;;;;;0.40;0.30;;;;;;;1.38;100.00;100814.41;5073438;28;20527;-73
2021/12/11 10:29:18;;;;;;;0.40;0.30;;;;;;;1.37;100.00;100808.22;5073487;28;20483;-74
2021/12/11 10:31:48;;;;;;;0.50;0.30;;;;;;;1.36;100.00;100819.16;5073141;28;21008;-73
2021/12/11 10:34:19;;;;;;;1.60;1.50;;;;;;;1.38;100.00;100815.22;5073048;28;20477;-73
2021/12/11 10:36:55;;;;;;;0.40;0.30;;;;;;;1.35;100.00;100809.53;5073055;28;20464;-73
2021/12/11 10:39:23;;;;;;;0.40;0.30;;;;;;;1.38;100.00;100815.22;5073317;28;20444;-74
2021/12/11 10:41:51;;;;;;;0.97;0.97;;;;;;;1.37;100.00;100815.44;5073264;28;20436;-73
2021/12/11 10:44:22;;;;;;;0.40;0.30;;;;;;;1.45;100.00;100821.22;5072984;28;20515;-73
2021/12/11 10:46:53;;;;;;;0.40;0.30;;;;;;;1.51;100.00;100822.97;5072864;28;20476;-73
2021/12/11 10:49:20;;;;;;;0.40;0.30;;;;;;;1.47;100.00;100823.69;5073275;28;20431;-73
2021/12/11 10:51:49;;;;;;;0.40;0.20;;;;;;;1.45;100.00;100836.44;5072864;28;20973;-73
2021/12/11 10:54:19;;;;;;;0.40;0.30;;;;;;;1.40;100.00;100842.47;5072958;28;20444;-74
2021/12/11 10:56:47;;;;;;;0.40;0.23;;;;;;;1.38;100.00;100841.09;5072992;28;20469;-73
2021/12/11 10:59:18;;;;;;;0.40;0.30;;;;;;;1.30;100.00;100850.25;5072846;28;20464;-73
2021/12/11 11:01:51;;;;;;;0.70;0.70;;;;;;;1.30;100.00;100852.13;5073025;28;20466;-73
2021/12/11 11:04:22;;;;;;;20.60;19.20;;;;;;;1.36;100.00;100854.66;5073845;28;20437;-73
2021/12/11 11:06:49;;;;;;;0.40;0.30;;;;;;;1.36;100.00;100856.50;5072656;28;20970;-74
2021/12/11 11:09:17;;;;;;;0.40;0.30;;;;;;;1.45;100.00;100855.09;5072802;28;20989;-73
2021/12/11 11:11:46;;;;;;;0.40;0.30;;;;;;;1.48;100.00;100855.47;5072772;28;20845;-74
2021/12/11 11:14:15;;;;;;;0.40;0.30;;;;;;;1.54;100.00;100868.91;5072969;28;20460;-73
2021/12/11 11:16:44;;;;;;;0.73;0.73;;;;;;;1.55;100.00;100863.34;5072928;28;20461;-74
2021/12/11 11:19:12;;;;;;;0.50;0.50;;;;;;;1.55;100.00;100863.34;5072918;28;20790;-74
2021/12/11 11:21:41;;;;;;;0.40;0.20;;;;;;;1.66;100.00;100865.19;5072811;28;20485;-73
2021/12/11 11:24:08;;;;;;;0.40;0.20;;;;;;;1.72;100.00;100866.09;5072859;28;20860;-73
2021/12/11 11:26:38;;;;;;;0.40;0.30;;;;;;;1.74;100.00;100862.16;5072885;28;20465;-74
2021/12/11 11:29:07;;;;;;;0.40;0.20;;;;;;;1.60;100.00;100868.81;5072870;28;20441;-74
2021/12/11 11:31:39;;;;;;;0.40;0.30;;;;;;;1.68;100.00;100875.63;5072579;28;20445;-73
2021/12/11 11:34:09;;;;;;;0.40;0.20;;;;;;;1.68;100.00;100881.78;5072669;28;20945;-74
2021/12/11 11:36:38;;;;;;;0.40;0.27;;;;;;;1.61;100.00;100885.63;5072748;28;20469;-74
2021/12/11 11:39:09;;;;;;;0.50;0.50;;;;;;;1.67;100.00;100890.81;5072829;28;20467;-75
2021/12/11 11:41:38;;;;;;;0.40;0.30;;;;;;;1.71;100.00;100894.66;5072727;28;20481;-74